createdAt,value
2022-08-19T00:01:18.071Z,0.80
2022-08-19T00:05:12.414Z,1.35
2022-08-19T00:08:54.543Z,0.50
2022-08-19T00:12:37.449Z,0.63
2022-08-19T00:16:29.194Z,0.22
2022-08-19T00:20:13.538Z,1.08
2022-08-19T00:23:59.268Z,0.32
2022-08-19T00:27:41.952Z,1.25
2022-08-19T00:31:24.020Z,1.20
2022-08-19T00:35:06.292Z,0.65
2022-08-19T00:38:48.375Z,0.77
2022-08-19T00:42:30.314Z,0.60
2022-08-19T00:46:12.171Z,0.60
2022-08-19T00:49:59.453Z,0.10
2022-08-19T00:53:41.692Z,0.30
2022-08-19T00:57:31.100Z,0.20
2022-08-19T01:01:15.145Z,1.45
2022-08-19T01:04:57.340Z,0.30
2022-08-19T01:08:39.192Z,0.32
2022-08-19T01:12:22.487Z,0.30
2022-08-19T01:16:09.944Z,0.60
2022-08-19T01:19:53.393Z,0.20
2022-08-19T01:23:44.051Z,0.40
2022-08-19T01:27:25.950Z,0.32
2022-08-19T01:31:26.452Z,0.45
2022-08-19T01:35:10.495Z,1.63
2022-08-19T01:38:52.425Z,0.77
2022-08-19T01:42:34.415Z,2.65
2022-08-19T01:46:16.308Z,1.25
2022-08-19T01:49:59.751Z,0.77
2022-08-19T01:53:42.757Z,0.40
2022-08-19T01:57:24.671Z,1.17
2022-08-19T02:01:07.462Z,0.63
2022-08-19T02:04:49.673Z,1.65
2022-08-19T02:08:33.071Z,0.30
2022-08-19T02:12:15.574Z,2.22
2022-08-19T02:15:57.481Z,0.40
2022-08-19T02:19:39.598Z,2.40
2022-08-19T02:23:23.047Z,1.58
2022-08-19T02:27:05.914Z,0.52
2022-08-19T02:30:48.595Z,0.75
2022-08-19T02:34:30.444Z,1.77
2022-08-19T02:38:27.426Z,3.60
2022-08-19T02:42:09.276Z,0.80
2022-08-19T02:45:52.305Z,1.55
2022-08-19T02:49:34.885Z,0.98
2022-08-19T02:53:16.828Z,3.35
2022-08-19T02:56:58.733Z,1.10
2022-08-19T03:00:50.221Z,2.15
2022-08-19T03:04:32.081Z,2.90
2022-08-19T03:08:14.601Z,3.22
2022-08-19T03:11:56.839Z,1.25
2022-08-19T03:15:43.395Z,3.35
2022-08-19T03:23:07.397Z,2.38
2022-08-19T03:26:52.859Z,3.83
2022-08-19T03:30:35.212Z,1.20
2022-08-19T03:34:27.622Z,2.13
2022-08-19T03:38:09.495Z,4.30
2022-08-19T03:42:31.862Z,5.60
2022-08-19T03:46:02.224Z,3.88
2022-08-19T03:49:44.514Z,3.47
2022-08-19T03:53:28.756Z,6.55
2022-08-19T03:57:10.640Z,5.38
2022-08-19T04:00:52.588Z,7.95
2022-08-19T04:04:34.458Z,7.75
2022-08-19T04:08:19.972Z,9.07
2022-08-19T04:12:01.812Z,6.13
2022-08-19T04:15:45.942Z,7.05
2022-08-19T04:19:30.488Z,6.15
2022-08-19T04:23:13.903Z,6.95
2022-08-19T04:26:55.771Z,10.48
2022-08-19T04:30:45.869Z,7.43
2022-08-19T04:34:29.716Z,10.27
2022-08-19T04:38:12.187Z,9.05
2022-08-19T04:42:12.464Z,8.70
2022-08-19T04:45:56.473Z,8.10
2022-08-19T04:49:42.820Z,7.63
2022-08-19T04:53:37.713Z,8.05
2022-08-19T04:57:19.936Z,13.85
2022-08-19T05:01:01.855Z,8.05
2022-08-19T05:04:43.768Z,15.60
2022-08-19T05:08:31.172Z,8.32
2022-08-19T05:12:13.823Z,9.73
2022-08-19T05:15:58.215Z,14.18
2022-08-19T05:19:59.792Z,12.33
2022-08-19T05:23:42.147Z,7.43
2022-08-19T05:27:23.989Z,10.77
2022-08-19T05:31:05.931Z,12.43
2022-08-19T05:34:47.747Z,7.90
2022-08-19T05:38:31.036Z,7.97
2022-08-19T05:42:14.138Z,9.82
2022-08-19T05:45:56.209Z,11.15
2022-08-19T05:49:38.683Z,10.27
2022-08-19T05:53:20.656Z,11.50
2022-08-19T05:57:03.401Z,12.23
2022-08-19T06:00:46.143Z,8.00
2022-08-19T06:04:28.011Z,9.75
2022-08-19T06:08:09.831Z,11.57
2022-08-19T06:11:56.074Z,9.43
2022-08-19T06:15:38.041Z,9.10
2022-08-19T06:19:23.255Z,11.18
2022-08-19T06:23:05.207Z,9.48
2022-08-19T06:30:31.146Z,11.10
2022-08-19T06:34:13.582Z,10.10
2022-08-19T06:37:55.579Z,16.35
2022-08-19T06:41:47.314Z,9.82
2022-08-19T06:45:34.585Z,12.45
2022-08-19T06:49:18.553Z,8.18
2022-08-19T06:53:01.423Z,11.00
2022-08-19T06:56:46.846Z,9.30
2022-08-19T07:00:28.884Z,11.27
2022-08-19T07:04:12.147Z,9.45
2022-08-19T07:07:54.223Z,7.13
2022-08-19T07:11:44.864Z,10.68
2022-08-19T07:19:12.540Z,8.00
2022-08-19T07:22:58.065Z,11.02
2022-08-19T07:26:42.372Z,7.40
2022-08-19T07:30:26.209Z,8.48
2022-08-19T07:34:09.936Z,6.63
2022-08-19T07:37:51.807Z,7.07
2022-08-19T07:41:35.236Z,7.07
2022-08-19T07:45:17.274Z,8.88
2022-08-19T07:48:59.902Z,8.77
2022-08-19T07:52:41.808Z,5.80
2022-08-19T07:56:24.327Z,8.13
2022-08-19T08:00:07.328Z,6.90
2022-08-19T08:04:09.408Z,8.75
2022-08-19T08:08:09.911Z,6.72
2022-08-19T08:12:02.006Z,5.70
2022-08-19T08:15:46.728Z,11.02
2022-08-19T08:19:29.764Z,9.23
2022-08-19T08:23:24.339Z,7.38
2022-08-19T08:27:11.211Z,6.65
2022-08-19T08:30:53.386Z,10.60
2022-08-19T08:34:35.280Z,10.00
2022-08-19T08:38:18.800Z,7.82
2022-08-19T08:42:20.583Z,5.13
2022-08-19T08:46:39.113Z,6.97
2022-08-19T08:50:37.268Z,7.82
2022-08-19T08:54:25.504Z,10.50
2022-08-19T08:58:16.859Z,9.02
2022-08-19T09:01:59.100Z,6.53
2022-08-19T09:06:04.387Z,10.82
2022-08-19T09:09:55.997Z,8.20
2022-08-19T09:14:35.034Z,9.73
2022-08-19T09:18:19.107Z,10.25
2022-08-19T09:22:01.634Z,6.53
2022-08-19T09:25:43.633Z,6.63
2022-08-19T09:29:25.592Z,11.43
2022-08-19T09:33:08.113Z,7.22
2022-08-19T09:36:54.677Z,9.02
2022-08-19T09:40:38.552Z,9.77
2022-08-19T09:44:24.230Z,6.15
2022-08-19T09:48:09.389Z,8.27
2022-08-19T09:51:53.076Z,6.45
2022-08-19T09:55:34.870Z,4.50
2022-08-19T09:59:16.802Z,6.35
2022-08-19T10:02:58.967Z,5.65
2022-08-19T10:06:45.901Z,5.28
2022-08-19T10:10:28.523Z,7.00
2022-08-19T10:14:10.771Z,7.65
2022-08-19T10:17:55.385Z,8.40
2022-08-19T10:21:37.856Z,5.93
2022-08-19T10:25:22.378Z,6.73
2022-08-19T10:29:06.273Z,9.55
2022-08-19T10:32:51.192Z,5.60
2022-08-19T10:36:36.291Z,5.47
2022-08-19T10:44:20.559Z,4.78
2022-08-19T10:48:02.373Z,7.15
2022-08-19T10:52:03.298Z,5.13
2022-08-19T10:56:04.284Z,6.18
2022-08-19T10:59:46.233Z,6.78
2022-08-19T11:03:32.059Z,5.97
2022-08-19T11:07:13.850Z,5.47
2022-08-19T11:10:58.510Z,8.07
2022-08-19T11:14:41.158Z,7.13
2022-08-19T11:18:22.956Z,6.22
2022-08-19T11:22:04.823Z,6.20
2022-08-19T11:25:47.359Z,8.00
2022-08-19T11:29:30.134Z,6.95
2022-08-19T11:33:12.402Z,5.90
2022-08-19T11:36:55.559Z,5.32
2022-08-19T11:40:37.429Z,4.28
2022-08-19T11:44:19.383Z,6.53
2022-08-19T11:48:01.791Z,6.38
2022-08-19T11:51:44.291Z,4.93
2022-08-19T11:55:26.208Z,6.97
2022-08-19T11:59:12.789Z,7.10
2022-08-19T12:02:56.352Z,4.13
2022-08-19T12:06:40.531Z,4.75
2022-08-19T12:10:26.289Z,4.78
2022-08-19T12:14:14.712Z,6.00
2022-08-19T12:17:58.500Z,6.80
2022-08-19T12:21:40.703Z,5.65
2022-08-19T12:25:22.693Z,5.47
2022-08-19T12:29:05.641Z,5.40
2022-08-19T12:32:47.527Z,5.43
2022-08-19T12:36:29.627Z,4.20
2022-08-19T12:40:13.019Z,7.03
2022-08-19T12:43:54.939Z,4.00
2022-08-19T12:47:38.815Z,6.20
2022-08-19T12:51:23.410Z,7.05
2022-08-19T12:55:07.892Z,9.68
2022-08-19T12:58:51.074Z,6.38
2022-08-19T13:02:38.983Z,5.28
2022-08-19T13:06:23.759Z,6.40
2022-08-19T13:10:08.030Z,7.57
2022-08-19T13:13:53.414Z,9.10
2022-08-19T13:17:35.776Z,6.03
2022-08-19T13:21:17.760Z,8.45
2022-08-19T13:25:03.859Z,7.80
2022-08-19T13:29:04.996Z,6.05
2022-08-19T13:33:05.548Z,5.22
2022-08-19T13:36:47.513Z,6.70
2022-08-19T13:40:30.101Z,6.32
2022-08-19T13:44:11.985Z,8.35
2022-08-19T13:47:59.171Z,6.18
2022-08-19T13:51:43.599Z,11.68
2022-08-19T13:55:26.879Z,6.93
2022-08-19T13:59:08.933Z,6.50
2022-08-19T14:02:54.010Z,7.85
2022-08-19T14:06:36.259Z,11.43
2022-08-19T14:10:19.802Z,7.85
2022-08-19T14:14:01.624Z,8.38
2022-08-19T14:17:45.502Z,5.57
2022-08-19T14:21:27.359Z,6.10
2022-08-19T14:25:13.538Z,9.65
2022-08-19T14:28:58.701Z,6.47
2022-08-19T14:32:40.967Z,4.57
2022-08-19T14:36:22.891Z,7.15
2022-08-19T14:40:05.707Z,6.38
2022-08-19T14:43:50.797Z,5.38
2022-08-19T14:51:15.260Z,8.65
2022-08-19T14:54:57.059Z,8.20
2022-08-19T14:58:43.652Z,6.60
2022-08-19T15:02:34.666Z,6.50
2022-08-19T15:06:17.277Z,3.92
2022-08-19T15:09:59.920Z,8.10
2022-08-19T15:13:42.387Z,4.22
2022-08-19T15:17:43.627Z,5.43
2022-08-19T15:21:28.107Z,5.60
2022-08-19T15:25:12.127Z,4.85
2022-08-19T15:28:53.930Z,10.68
2022-08-19T15:32:36.545Z,5.05
2022-08-19T15:36:18.930Z,5.20
2022-08-19T15:40:00.846Z,5.32
2022-08-19T15:43:42.995Z,3.97
2022-08-19T15:47:24.911Z,3.47
2022-08-19T15:51:06.718Z,3.15
2022-08-19T15:54:48.532Z,5.10
2022-08-19T15:58:49.003Z,3.92
2022-08-19T16:02:49.466Z,3.72
2022-08-19T16:06:36.162Z,2.55
2022-08-19T16:10:26.981Z,2.13
2022-08-19T16:14:09.802Z,3.08
2022-08-19T16:17:56.588Z,4.63
2022-08-19T16:21:41.584Z,4.28
2022-08-19T16:25:27.647Z,9.82
2022-08-19T16:29:12.162Z,4.97
2022-08-19T16:32:55.043Z,4.03
2022-08-19T16:36:36.960Z,3.67
2022-08-19T16:40:19.216Z,3.88
2022-08-19T16:44:01.044Z,4.70
2022-08-19T16:47:42.931Z,6.03
2022-08-19T16:51:25.150Z,3.53
2022-08-19T16:55:08.468Z,7.88
2022-08-19T16:58:50.557Z,6.47
2022-08-19T17:02:33.487Z,6.90
2022-08-19T17:06:20.478Z,5.18
2022-08-19T17:10:05.259Z,2.92
2022-08-19T17:13:49.394Z,2.97
2022-08-19T17:17:31.778Z,4.28
2022-08-19T17:21:13.739Z,4.63
2022-08-19T17:24:58.118Z,2.28
2022-08-19T17:28:40.411Z,3.78
2022-08-19T17:32:25.334Z,4.15
2022-08-19T17:36:08.165Z,5.78
2022-08-19T17:39:50.014Z,3.75
2022-08-19T17:43:37.933Z,3.22
2022-08-19T17:47:22.037Z,4.95
2022-08-19T17:51:31.999Z,4.20
2022-08-19T17:55:13.947Z,3.30
2022-08-19T17:59:01.643Z,3.00
2022-08-19T18:02:55.199Z,3.67
2022-08-19T18:06:37.903Z,7.32
2022-08-19T18:10:21.618Z,5.18
2022-08-19T18:14:03.552Z,2.75
2022-08-19T18:17:45.779Z,4.88
2022-08-19T18:21:31.982Z,4.32
2022-08-19T18:29:04.454Z,4.00
2022-08-19T18:32:49.560Z,5.00
2022-08-19T18:36:52.913Z,4.20
2022-08-19T18:40:53.316Z,6.65
2022-08-19T18:44:59.653Z,2.55
2022-08-19T18:49:00.558Z,5.47
2022-08-19T18:52:42.436Z,2.55
2022-08-19T18:56:28.686Z,12.68
2022-08-19T19:00:11.295Z,2.83
2022-08-19T19:03:54.633Z,3.53
2022-08-19T19:07:36.469Z,5.60
2022-08-19T19:11:23.406Z,5.38
2022-08-19T19:15:06.152Z,7.97
2022-08-19T19:18:52.833Z,7.25
2022-08-19T19:22:34.777Z,15.35
2022-08-19T19:26:17.642Z,6.88
2022-08-19T19:29:59.482Z,7.13
2022-08-19T19:33:42.160Z,5.85
2022-08-19T19:37:24.019Z,7.40
2022-08-19T19:41:05.983Z,4.78
2022-08-19T19:44:50.577Z,5.13
2022-08-19T19:48:32.901Z,6.07
2022-08-19T19:52:14.714Z,2.85
2022-08-19T19:56:02.178Z,5.75
2022-08-19T19:59:44.861Z,3.63
2022-08-19T20:03:34.229Z,2.75
2022-08-19T20:07:16.044Z,3.40
2022-08-19T20:11:02.128Z,5.38
2022-08-19T20:14:43.895Z,4.78
2022-08-19T20:18:26.080Z,4.00
2022-08-19T20:22:08.187Z,4.00
2022-08-19T20:25:51.094Z,5.43
2022-08-19T20:29:38.713Z,4.03
2022-08-19T20:33:22.315Z,7.53
2022-08-19T20:37:04.769Z,6.55
2022-08-19T20:40:46.699Z,7.93
2022-08-19T20:44:28.511Z,7.10
2022-08-19T20:48:12.328Z,11.23
2022-08-19T20:51:55.019Z,9.63
2022-08-19T20:55:36.967Z,6.68
2022-08-19T20:59:20.466Z,9.50
2022-08-19T21:03:02.323Z,9.70
2022-08-19T21:06:45.497Z,7.80
2022-08-19T21:10:27.956Z,10.38
2022-08-19T21:14:10.064Z,6.82
2022-08-19T21:17:52.164Z,6.13
2022-08-19T21:21:34.986Z,6.55
2022-08-19T21:25:18.250Z,7.07
2022-08-19T21:29:00.052Z,7.55
2022-08-19T21:32:41.899Z,7.13
2022-08-19T21:36:23.757Z,6.20
2022-08-19T21:40:08.098Z,10.30
2022-08-19T21:43:49.961Z,8.35
2022-08-19T21:47:32.024Z,10.70
2022-08-19T21:51:13.987Z,7.18
2022-08-19T21:54:56.844Z,4.78
2022-08-19T21:58:38.794Z,5.50
2022-08-19T22:02:21.713Z,8.95
2022-08-19T22:06:04.016Z,6.40
2022-08-19T22:09:47.486Z,6.05
2022-08-19T22:13:39.926Z,10.15
2022-08-19T22:17:23.020Z,10.30
2022-08-19T22:21:11.410Z,7.65
2022-08-19T22:25:01.081Z,6.97
2022-08-19T22:28:43.784Z,6.00
2022-08-19T22:32:26.527Z,6.15
2022-08-19T22:36:10.575Z,9.52
2022-08-19T22:39:52.553Z,8.38
2022-08-19T22:43:34.536Z,6.75
2022-08-19T22:47:17.204Z,7.78
2022-08-19T22:51:18.055Z,3.92
2022-08-19T22:55:02.248Z,8.40
2022-08-19T22:58:45.136Z,10.98
2022-08-19T23:02:31.550Z,7.20
2022-08-19T23:06:14.489Z,9.00
2022-08-19T23:09:56.800Z,5.43
2022-08-19T23:13:41.257Z,6.68
2022-08-19T23:17:23.256Z,6.70
2022-08-19T23:21:09.865Z,7.35
2022-08-19T23:24:55.875Z,8.75
2022-08-19T23:28:56.747Z,5.72
2022-08-19T23:32:38.660Z,5.85
2022-08-19T23:36:22.523Z,6.70
2022-08-19T23:40:06.127Z,7.65
2022-08-19T23:43:48.092Z,7.13
2022-08-19T23:47:34.585Z,8.68
2022-08-19T23:51:17.587Z,7.90
2022-08-19T23:55:08.844Z,9.05
2022-08-19T23:58:50.664Z,9.77
